createdAt,value
2023-03-04T00:04:33.344Z,2.38
2023-03-04T00:10:37.080Z,2.40
2023-03-04T00:16:40.647Z,1.80
2023-03-04T00:22:45.442Z,2.47
2023-03-04T00:28:48.810Z,2.42
2023-03-04T00:34:52.336Z,2.00
2023-03-04T00:40:57.090Z,1.95
2023-03-04T00:47:00.520Z,2.10
2023-03-04T00:53:03.905Z,2.10
2023-03-04T00:59:08.840Z,2.35
2023-03-04T01:05:12.395Z,1.98
2023-03-04T01:11:15.775Z,1.88
2023-03-04T01:17:20.548Z,2.30
2023-03-04T01:23:23.939Z,2.50
2023-03-04T01:29:29.989Z,2.75
2023-03-04T01:35:35.042Z,2.17
2023-03-04T01:41:38.522Z,2.00
2023-03-04T01:47:44.163Z,2.00
2023-03-04T01:53:53.217Z,2.13
2023-03-04T02:00:13.408Z,1.65
2023-03-04T02:06:16.857Z,3.10
2023-03-04T02:12:21.788Z,2.00
2023-03-04T02:18:26.016Z,1.70
2023-03-04T02:24:31.658Z,1.40
2023-03-04T02:30:36.531Z,2.05
2023-03-04T02:36:40.276Z,1.80
2023-03-04T02:42:45.109Z,2.20
2023-03-04T02:48:49.954Z,2.05
2023-03-04T02:54:53.337Z,1.92
2023-03-04T03:00:56.914Z,1.98
2023-03-04T03:07:01.764Z,2.28
2023-03-04T03:13:05.235Z,1.83
2023-03-04T03:19:08.756Z,1.73
2023-03-04T03:25:14.236Z,1.83
2023-03-04T03:31:17.874Z,1.45
2023-03-04T03:37:21.461Z,1.42
2023-03-04T03:43:26.265Z,2.05
2023-03-04T03:49:29.612Z,2.20
2023-03-04T03:55:33.183Z,1.58
2023-03-04T04:01:38.066Z,1.77
2023-03-04T04:07:42.376Z,1.60
2023-03-04T04:13:45.963Z,1.65
2023-03-04T04:19:50.780Z,1.85
2023-03-04T04:25:56.519Z,1.73
2023-03-04T04:32:00.141Z,1.92
2023-03-04T04:38:04.966Z,1.60
2023-03-04T04:44:08.668Z,2.22
2023-03-04T04:50:12.753Z,1.38
2023-03-04T04:56:18.157Z,1.40
2023-03-04T05:02:21.904Z,1.83
2023-03-04T05:08:25.273Z,1.40
2023-03-04T05:14:30.044Z,2.05
2023-03-04T05:20:33.420Z,1.67
2023-03-04T05:26:36.843Z,2.10
2023-03-04T05:32:41.658Z,1.65
2023-03-04T05:38:45.106Z,2.17
2023-03-04T05:44:48.532Z,2.10
2023-03-04T05:50:56.371Z,1.98
2023-03-04T05:56:59.734Z,1.85
2023-03-04T06:03:03.407Z,1.73
2023-03-04T06:09:08.358Z,2.03
2023-03-04T06:15:12.087Z,1.73
2023-03-04T06:21:15.816Z,1.67
2023-03-04T06:27:20.742Z,1.83
2023-03-04T06:33:24.128Z,1.70
2023-03-04T06:39:27.801Z,2.10
2023-03-04T06:45:32.590Z,1.85
2023-03-04T06:51:36.037Z,2.30
2023-03-04T06:57:39.863Z,2.72
2023-03-04T07:03:45.028Z,2.53
2023-03-04T07:09:48.439Z,2.03
2023-03-04T07:15:51.926Z,2.78
2023-03-04T07:21:56.666Z,1.92
2023-03-04T07:28:00.247Z,2.00
2023-03-04T07:34:04.437Z,2.30
2023-03-04T07:40:10.492Z,2.17
2023-03-04T07:46:14.010Z,1.75
2023-03-04T07:52:17.452Z,2.22
2023-03-04T07:58:22.263Z,2.45
2023-03-04T08:04:25.664Z,2.60
2023-03-04T08:10:29.321Z,2.90
2023-03-04T08:16:34.303Z,2.28
2023-03-04T08:22:37.708Z,2.30
2023-03-04T08:28:41.188Z,2.67
2023-03-04T08:34:46.087Z,2.78
2023-03-04T08:40:54.518Z,3.05
2023-03-04T08:46:58.322Z,3.42
2023-03-04T08:53:03.625Z,2.60
2023-03-04T08:59:07.233Z,3.67
2023-03-04T09:05:10.969Z,3.13
2023-03-04T09:11:15.915Z,2.63
2023-03-04T09:17:19.511Z,2.35
2023-03-04T09:23:23.480Z,2.65
2023-03-04T09:29:28.395Z,3.10
2023-03-04T09:35:31.912Z,2.10
2023-03-04T09:41:38.528Z,1.48
2023-03-04T09:47:44.140Z,1.75
2023-03-04T09:53:51.613Z,1.60
2023-03-04T10:00:01.732Z,1.27
2023-03-04T10:06:07.988Z,1.85
2023-03-04T10:12:15.497Z,1.73
2023-03-04T10:18:22.260Z,1.40
2023-03-04T10:24:29.201Z,1.92
2023-03-04T10:30:37.186Z,2.30
2023-03-04T10:36:45.927Z,1.40
2023-03-04T10:42:52.361Z,1.58
2023-03-04T10:48:56.206Z,1.80
2023-03-04T10:55:00.524Z,2.17
2023-03-04T11:01:06.953Z,1.30
2023-03-04T11:07:11.344Z,1.70
2023-03-04T11:13:18.390Z,0.90
2023-03-04T11:19:24.598Z,0.90
2023-03-04T11:25:29.795Z,0.80
2023-03-04T11:31:35.522Z,0.85
2023-03-04T11:37:42.629Z,0.65
2023-03-04T11:43:47.303Z,1.05
2023-03-04T11:50:05.751Z,0.68
2023-03-04T11:56:29.009Z,0.60
2023-03-04T12:02:36.319Z,0.70
2023-03-04T12:08:54.578Z,0.68
2023-03-04T12:15:04.347Z,1.00
2023-03-04T12:21:17.155Z,0.80
2023-03-04T12:27:26.195Z,0.50
2023-03-04T12:33:35.698Z,0.60
2023-03-04T12:39:40.888Z,0.70
2023-03-04T12:45:49.057Z,0.60
2023-03-04T12:51:59.086Z,0.70
2023-03-04T12:58:03.373Z,0.75
2023-03-04T13:04:11.423Z,0.63
2023-03-04T13:10:18.234Z,0.40
2023-03-04T13:16:33.286Z,0.57
2023-03-04T13:22:53.427Z,0.35
2023-03-04T13:29:11.398Z,0.30
2023-03-04T13:35:29.659Z,0.60
2023-03-04T13:41:33.996Z,0.60
2023-03-04T13:47:50.992Z,0.50
2023-03-04T13:53:55.800Z,0.50
2023-03-04T14:00:00.133Z,0.63
2023-03-04T14:06:18.243Z,1.45
2023-03-04T14:12:21.780Z,1.00
2023-03-04T14:18:25.853Z,0.77
2023-03-04T14:24:31.593Z,0.52
2023-03-04T14:30:42.739Z,0.60
2023-03-04T14:36:47.016Z,0.68
2023-03-04T14:42:53.412Z,1.08
2023-03-04T14:48:57.729Z,0.80
2023-03-04T14:55:05.894Z,1.40
2023-03-04T15:01:16.355Z,1.30
2023-03-04T15:07:21.115Z,1.15
2023-03-04T15:13:38.846Z,0.90
2023-03-04T15:19:43.683Z,1.08
2023-03-04T15:25:47.216Z,0.80
2023-03-04T15:31:51.869Z,0.80
2023-03-04T15:37:57.799Z,1.25
2023-03-04T15:44:01.203Z,1.13
2023-03-04T15:50:04.739Z,0.60
2023-03-04T15:56:11.064Z,1.00
2023-03-04T16:02:17.496Z,1.02
2023-03-04T16:08:22.072Z,0.82
2023-03-04T16:14:27.415Z,1.02
2023-03-04T16:20:32.447Z,1.33
2023-03-04T16:26:36.695Z,1.35
2023-03-04T16:32:41.653Z,1.13
2023-03-04T16:38:45.140Z,0.77
2023-03-04T16:44:48.572Z,0.95
2023-03-04T16:50:53.586Z,1.08
2023-03-04T16:56:57.050Z,0.95
2023-03-04T17:03:01.328Z,1.25
2023-03-04T17:09:06.604Z,1.40
2023-03-04T17:15:11.687Z,1.42
2023-03-04T17:21:16.176Z,1.33
2023-03-04T17:27:20.987Z,1.00
2023-03-04T17:33:24.631Z,1.35
2023-03-04T17:39:28.103Z,1.23
2023-03-04T17:45:33.078Z,1.30
2023-03-04T17:51:37.822Z,1.33
2023-03-04T17:57:41.610Z,1.42
2023-03-04T18:03:46.564Z,2.58
2023-03-04T18:09:50.262Z,2.15
2023-03-04T18:15:54.039Z,1.73
2023-03-04T18:21:58.845Z,0.77
2023-03-04T18:28:03.056Z,0.90
2023-03-04T18:34:06.563Z,1.00
2023-03-04T18:40:12.348Z,1.13
2023-03-04T18:46:24.402Z,1.30
2023-03-04T18:52:27.860Z,1.52
2023-03-04T18:58:35.024Z,1.90
2023-03-04T19:04:38.800Z,1.77
2023-03-04T19:10:42.548Z,2.03
2023-03-04T19:16:47.392Z,3.03
2023-03-04T19:22:50.980Z,2.17
2023-03-04T19:28:54.450Z,2.40
2023-03-04T19:34:59.214Z,2.50
2023-03-04T19:41:09.308Z,2.65
2023-03-04T19:47:12.806Z,2.13
2023-03-04T19:53:18.812Z,1.67
2023-03-04T19:59:22.828Z,1.67
2023-03-04T20:05:26.229Z,2.05
2023-03-04T20:11:31.495Z,1.90
2023-03-04T20:17:34.936Z,1.80
2023-03-04T20:23:38.477Z,2.10
2023-03-04T20:29:44.341Z,2.30
2023-03-04T20:35:48.075Z,2.95
2023-03-04T20:41:51.513Z,2.78
2023-03-04T20:47:56.534Z,3.00
2023-03-04T20:54:00.337Z,3.88
2023-03-04T21:00:03.873Z,3.30
2023-03-04T21:06:09.778Z,2.90
2023-03-04T21:12:13.507Z,3.20
2023-03-04T21:18:16.978Z,3.25
2023-03-04T21:24:22.503Z,3.92
2023-03-04T21:30:26.026Z,4.03
2023-03-04T21:36:29.462Z,3.17
2023-03-04T21:42:34.594Z,4.07
2023-03-04T21:48:38.534Z,4.40
2023-03-04T21:54:42.061Z,4.07
2023-03-04T22:00:46.971Z,3.63
2023-03-04T22:06:50.511Z,3.03
2023-03-04T22:12:54.075Z,2.85
2023-03-04T22:18:59.448Z,2.90
2023-03-04T22:25:03.335Z,3.42
2023-03-04T22:31:14.844Z,4.15
2023-03-04T22:37:19.644Z,3.75
2023-03-04T22:43:23.132Z,3.80
2023-03-04T22:49:26.651Z,4.22
2023-03-04T22:55:31.420Z,4.57
2023-03-04T23:01:34.888Z,4.15
2023-03-04T23:07:38.719Z,3.88
2023-03-04T23:13:43.948Z,3.80
2023-03-04T23:19:47.447Z,4.53
2023-03-04T23:25:52.357Z,3.90
2023-03-04T23:31:57.510Z,4.63
2023-03-04T23:38:01.230Z,4.53
2023-03-04T23:44:05.443Z,4.18
2023-03-04T23:50:13.952Z,4.13
2023-03-04T23:56:18.003Z,3.92
